Miltona, Minnesota
Current Conditions -  °F | °C
As of 9:53 AM on Saturday 20 Dec 2014 (Local Time) from KAXN Reporting Station
Haze Haze  
Wind Chill: 21°   Ceiling: 500
Heat Index: 30°   Visibility: 4mi
Dew Point: 27°   Wind: 12mph
Humidity: 88%   Direction: 200°SSW
Pressure: 30.05"   Gusts: NA
Location:  46.04°N, 95.29°W
Report Text: KAXN 201553Z AUTO 20010KT 4SM BR OVC005 M01/M03 A3005 RMK AO2 SLP197 T10111028
Loading
Personal Weather Stations






























Interactive Weather Map New forecast layout! Learn more

10-Day Weather Forecast

Advertisements
Track Severe Weather on mobile